05AZ weather

Yuma Regional Medical Center Heliport
Yuma, Arizona, United States

Public forecast

Using degrees Fahrenheit for public forecast. Weather courtesy of forecast.io.

METAR (pilot weather report)

Closest report is Yuma MCAS/Yuma International Airport, 2.1 nm (3.9 km) SE. Retrieved 2019/08/17 15:57 UTC (3 minutes ago):

KNYL 171557Z AUTO 17010KT 10SM CLR 32/21 A2977 RMK AO2 SLP078 T03220211

TAF (pilot weather forecast)

Forecast is more than 12 hours old.

Closest forecast is Yuma MCAS/Yuma International Airport, 2.1 nm (3.9 km) SE. Retrieved 2014/04/27 15:15 UTC (5 years ago):

TAF TAF COR KNYL 271500Z 2715/2815 VRB06KT 9999 FEW250 QNH2989INS BECMG 2716/2718 26007KT QNH2978INS BECMG 2806/2808 VRB05KT QNH2981INS AUTOMATED SENSOR METWATCH 2715 TIL 2815 TX22/2723Z TN10/2813Z COR 1545